Terminal Aerodrome Forecast
Issued by NWS

Home | Current Version | Previous Version | Text Only | Print | Product List | Glossary On
Versions: 1 2 3 4 5 6 7 8 9 10 11 12 13 14 15 16 17 18 19 20 21 22 23
000
FTAK31 PAFA 290524
TAFATA
TAF
PATA 290524Z 2906/3006 VRB04KT P6SM SCT050 SCT120 BKN200
     FM291200 VRB04KT P6SM BKN050 BKN120 BKN200=

USA.gov is the U.S. government's official web portal to all federal, state and local government web resources and services.